createdAt,value
2016-10-22T00:00:47.644Z,1001.24
2016-10-22T00:01:47.611Z,1001.27
2016-10-22T00:02:47.485Z,1001.22
2016-10-22T00:03:47.307Z,1001.22
2016-10-22T00:04:47.938Z,1001.22
2016-10-22T00:05:47.654Z,1001.24
2016-10-22T00:06:47.607Z,1001.21
2016-10-22T00:07:47.548Z,1001.2
2016-10-22T00:08:47.648Z,1001.23
2016-10-22T00:09:47.711Z,1001.22
2016-10-22T00:10:47.580Z,1001.2
2016-10-22T00:11:47.671Z,1001.21
2016-10-22T00:12:47.487Z,1001.21
2016-10-22T00:13:47.458Z,1001.24
2016-10-22T00:14:48.033Z,1001.18
2016-10-22T00:15:47.645Z,1001.2
2016-10-22T00:16:47.925Z,1001.2
2016-10-22T00:17:47.510Z,1001.22
2016-10-22T00:18:47.621Z,1001.19
2016-10-22T00:19:47.550Z,1001.18
2016-10-22T00:20:47.715Z,1001.17
2016-10-22T00:21:47.905Z,1001.18
2016-10-22T00:22:47.960Z,1001.2
2016-10-22T00:23:47.821Z,1001.16
2016-10-22T00:24:47.566Z,1001.16
2016-10-22T00:25:47.910Z,1001.11
2016-10-22T00:26:47.586Z,1001.15
2016-10-22T00:27:47.820Z,1001.13
2016-10-22T00:28:48.373Z,1001.11
2016-10-22T00:29:47.797Z,1001.11
2016-10-22T00:30:47.900Z,1001.14
2016-10-22T00:31:48.173Z,1001.12
2016-10-22T00:32:48.186Z,1001.1
2016-10-22T00:33:47.979Z,1001.06
2016-10-22T00:34:47.831Z,1001.05
2016-10-22T00:35:47.904Z,1001.09
2016-10-22T00:36:48.011Z,1001.05
2016-10-22T00:37:47.793Z,1001.06
2016-10-22T00:38:48.125Z,1001.05
2016-10-22T00:39:47.946Z,1001.08
2016-10-22T00:40:48.255Z,1001.06
2016-10-22T00:41:47.852Z,1001.06
2016-10-22T00:42:48.366Z,1001.07
2016-10-22T00:43:48.043Z,1001.06
2016-10-22T00:44:48.208Z,1001.06
2016-10-22T00:45:48.337Z,1001.03
2016-10-22T00:46:48.053Z,1001.02
2016-10-22T00:47:48.344Z,1001.01
2016-10-22T00:48:48.271Z,1001
2016-10-22T00:49:48.233Z,1001
2016-10-22T00:50:48.184Z,1001
2016-10-22T00:51:48.260Z,1000.99
2016-10-22T00:52:48.424Z,1000.98
2016-10-22T00:53:48.869Z,1000.95
2016-10-22T00:54:48.367Z,1000.98
2016-10-22T00:55:48.521Z,1000.99
2016-10-22T00:56:48.281Z,1000.97
2016-10-22T00:57:48.109Z,1000.92
2016-10-22T00:58:48.402Z,1000.92
2016-10-22T00:59:48.128Z,1000.96
2016-10-22T01:00:48.501Z,1000.97
2016-10-22T01:01:48.645Z,1000.94
2016-10-22T01:02:48.299Z,1000.95
2016-10-22T01:03:48.644Z,1000.94
2016-10-22T01:04:48.827Z,1000.93
2016-10-22T01:05:49.090Z,1000.94
2016-10-22T01:06:48.287Z,1000.89
2016-10-22T01:07:48.483Z,1000.92
2016-10-22T01:08:48.440Z,1000.94
2016-10-22T01:09:49.256Z,1000.95
2016-10-22T01:10:48.444Z,1000.89
2016-10-22T01:11:48.811Z,1000.94
2016-10-22T01:12:48.653Z,1000.94
2016-10-22T01:13:49.082Z,1000.9
2016-10-22T01:14:48.520Z,1000.91
2016-10-22T01:15:48.609Z,1000.91
2016-10-22T01:16:48.958Z,1000.87
2016-10-22T01:17:48.504Z,1000.89
2016-10-22T01:18:48.483Z,1000.85
2016-10-22T01:19:48.935Z,1000.83
2016-10-22T01:20:48.859Z,1000.81
2016-10-22T01:21:48.880Z,1000.85
2016-10-22T01:22:48.796Z,1000.84
2016-10-22T01:23:48.913Z,1000.87
2016-10-22T01:24:48.944Z,1000.87
2016-10-22T01:25:48.792Z,1000.88
2016-10-22T01:26:48.859Z,1000.87
2016-10-22T01:27:48.873Z,1000.87
2016-10-22T01:28:48.839Z,1000.85
2016-10-22T01:29:49.086Z,1000.85
2016-10-22T01:30:49.412Z,1000.86
2016-10-22T01:31:49.037Z,1000.86
2016-10-22T01:32:48.759Z,1000.81
2016-10-22T01:33:49.129Z,1000.8
2016-10-22T01:34:49.101Z,1000.81
2016-10-22T01:35:49.028Z,1000.8
2016-10-22T01:36:48.798Z,1000.82
2016-10-22T01:37:49.121Z,1000.82
2016-10-22T01:38:49.348Z,1000.8
2016-10-22T01:39:49.339Z,1000.8
2016-10-22T01:40:49.499Z,1000.79
2016-10-22T01:41:49.239Z,1000.82
2016-10-22T01:42:49.078Z,1000.82
2016-10-22T01:43:49.327Z,1000.84
2016-10-22T01:44:49.500Z,1000.8
2016-10-22T01:45:49.014Z,1000.84
2016-10-22T01:46:49.556Z,1000.89
2016-10-22T01:47:49.336Z,1000.88
2016-10-22T01:48:49.746Z,1000.87
2016-10-22T01:49:49.050Z,1000.86
2016-10-22T01:50:49.191Z,1000.87
2016-10-22T01:51:49.378Z,1000.87
2016-10-22T01:52:49.200Z,1000.89
2016-10-22T01:53:49.406Z,1000.92
2016-10-22T01:54:49.040Z,1000.93
2016-10-22T01:55:49.328Z,1000.94
2016-10-22T01:56:49.097Z,1000.95
2016-10-22T01:57:50.103Z,1000.97
2016-10-22T01:58:49.344Z,1000.91
2016-10-22T01:59:49.551Z,1000.92
2016-10-22T02:00:49.666Z,1000.91
2016-10-22T02:01:49.292Z,1000.87
2016-10-22T02:02:49.087Z,1000.89
2016-10-22T02:03:49.430Z,1000.82
2016-10-22T02:04:49.630Z,1000.87
2016-10-22T02:05:49.647Z,1000.86
2016-10-22T02:06:49.523Z,1000.87
2016-10-22T02:07:49.406Z,1000.85
2016-10-22T02:08:49.371Z,1000.86
2016-10-22T02:09:50.032Z,1000.87
2016-10-22T02:10:49.826Z,1000.86
2016-10-22T02:11:49.495Z,1000.82
2016-10-22T02:12:49.799Z,1000.83
2016-10-22T02:13:49.897Z,1000.82
2016-10-22T02:14:49.706Z,1000.79
2016-10-22T02:15:49.521Z,1000.79
2016-10-22T02:16:49.396Z,1000.79
2016-10-22T02:17:49.397Z,1000.79
2016-10-22T02:18:49.913Z,1000.76
2016-10-22T02:19:49.486Z,1000.78
2016-10-22T02:20:49.620Z,1000.76
2016-10-22T02:21:49.954Z,1000.76
2016-10-22T02:22:49.724Z,1000.74
2016-10-22T02:23:49.439Z,1000.74
2016-10-22T02:24:49.752Z,1000.74
2016-10-22T02:25:49.623Z,1000.7
2016-10-22T02:26:49.757Z,1000.72
2016-10-22T02:27:49.753Z,1000.71
2016-10-22T02:28:49.900Z,1000.68
2016-10-22T02:29:49.997Z,1000.66
2016-10-22T02:30:49.923Z,1000.66
2016-10-22T02:31:49.874Z,1000.64
2016-10-22T02:32:49.774Z,1000.63
2016-10-22T02:33:50.095Z,1000.6
2016-10-22T02:34:49.784Z,1000.61
2016-10-22T02:35:49.718Z,1000.59
2016-10-22T02:36:50.088Z,1000.56
2016-10-22T02:37:49.685Z,1000.56
2016-10-22T02:38:49.793Z,1000.57
2016-10-22T02:39:50.041Z,1000.56
2016-10-22T02:40:50.080Z,1000.53
2016-10-22T02:41:50.016Z,1000.54
2016-10-22T02:42:50.452Z,1000.54
2016-10-22T02:43:50.084Z,1000.55
2016-10-22T02:44:50.073Z,1000.52
2016-10-22T02:45:49.956Z,1000.5
2016-10-22T02:46:50.227Z,1000.5
2016-10-22T02:47:50.213Z,1000.52
2016-10-22T02:48:50.156Z,1000.49
2016-10-22T02:49:50.069Z,1000.55
2016-10-22T02:50:50.322Z,1000.52
2016-10-22T02:51:50.866Z,1000.54
2016-10-22T02:52:50.355Z,1000.54
2016-10-22T02:53:50.141Z,1000.55
2016-10-22T02:54:50.082Z,1000.56
2016-10-22T02:55:50.045Z,1000.57
2016-10-22T02:57:50.066Z,1000.55
2016-10-22T02:58:50.399Z,1000.56
2016-10-22T02:59:50.486Z,1000.6
2016-10-22T03:00:50.394Z,1000.59
2016-10-22T03:01:50.338Z,1000.61
2016-10-22T03:02:50.076Z,1000.59
2016-10-22T03:03:50.678Z,1000.64
2016-10-22T03:04:50.280Z,1000.65
2016-10-22T03:05:50.260Z,1000.68
2016-10-22T03:06:50.440Z,1000.68
2016-10-22T03:07:50.491Z,1000.7
2016-10-22T03:08:50.579Z,1000.69
2016-10-22T03:09:50.843Z,1000.68
2016-10-22T03:10:50.984Z,1000.67
2016-10-22T03:11:50.840Z,1000.65
2016-10-22T03:12:50.776Z,1000.63
2016-10-22T03:13:50.346Z,1000.66
2016-10-22T03:14:50.325Z,1000.67
2016-10-22T03:15:50.487Z,1000.67
2016-10-22T03:16:50.336Z,1000.67
2016-10-22T03:17:50.644Z,1000.67
2016-10-22T03:18:50.793Z,1000.68
2016-10-22T03:19:50.676Z,1000.68
2016-10-22T03:20:50.603Z,1000.67
2016-10-22T03:21:50.608Z,1000.7
2016-10-22T03:22:50.631Z,1000.68
2016-10-22T03:23:50.879Z,1000.69
2016-10-22T03:24:50.928Z,1000.71
2016-10-22T03:25:50.792Z,1000.73
2016-10-22T03:26:50.413Z,1000.67
2016-10-22T03:27:50.562Z,1000.69
2016-10-22T03:28:50.840Z,1000.7
2016-10-22T03:29:50.757Z,1000.71
2016-10-22T03:30:50.585Z,1000.7
2016-10-22T03:31:50.650Z,1000.73
2016-10-22T03:32:50.851Z,1000.7
2016-10-22T03:33:50.799Z,1000.67
2016-10-22T03:34:51.302Z,1000.7
2016-10-22T03:35:51.011Z,1000.67
2016-10-22T03:36:51.111Z,1000.69
2016-10-22T03:37:51.152Z,1000.7
2016-10-22T03:38:50.842Z,1000.7
2016-10-22T03:39:51.180Z,1000.71
2016-10-22T03:40:50.716Z,1000.68
2016-10-22T03:41:50.843Z,1000.68
2016-10-22T03:42:50.982Z,1000.67
2016-10-22T03:43:51.043Z,1000.65
2016-10-22T03:44:50.979Z,1000.67
2016-10-22T03:45:51.087Z,1000.63
2016-10-22T03:46:51.416Z,1000.64
2016-10-22T03:47:51.075Z,1000.62
2016-10-22T03:48:50.940Z,1000.62
2016-10-22T03:49:51.225Z,1000.66
2016-10-22T03:50:51.066Z,1000.64
2016-10-22T03:51:50.927Z,1000.65
2016-10-22T03:52:50.952Z,1000.66
2016-10-22T03:53:51.403Z,1000.67
2016-10-22T03:54:50.975Z,1000.67
2016-10-22T03:55:51.222Z,1000.7
2016-10-22T03:56:51.286Z,1000.66
2016-10-22T03:57:51.304Z,1000.64
2016-10-22T03:58:51.317Z,1000.66
2016-10-22T03:59:51.393Z,1000.69
2016-10-22T04:00:51.631Z,1000.7
2016-10-22T04:01:51.056Z,1000.65
2016-10-22T04:02:51.692Z,1000.67
2016-10-22T04:03:51.668Z,1000.7
2016-10-22T04:04:51.263Z,1000.67
2016-10-22T04:05:51.938Z,1000.72
2016-10-22T04:06:51.345Z,1000.71
2016-10-22T04:07:51.338Z,1000.68
2016-10-22T04:08:51.731Z,1000.73
2016-10-22T04:09:51.529Z,1000.73
2016-10-22T04:10:51.863Z,1000.71
2016-10-22T04:11:51.374Z,1000.73
2016-10-22T04:12:51.273Z,1000.71
2016-10-22T04:13:51.325Z,1000.76
2016-10-22T04:14:51.715Z,1000.75
2016-10-22T04:15:51.626Z,1000.76
2016-10-22T04:16:51.649Z,1000.74
2016-10-22T04:17:51.665Z,1000.73
2016-10-22T04:18:51.222Z,1000.79
2016-10-22T04:19:51.771Z,1000.77
2016-10-22T04:20:52.040Z,1000.81
2016-10-22T04:21:51.318Z,1000.74
2016-10-22T04:22:51.336Z,1000.74
2016-10-22T04:23:51.456Z,1000.78
2016-10-22T04:24:52.155Z,1000.8
2016-10-22T04:25:52.153Z,1000.79
2016-10-22T04:26:51.868Z,1000.8
2016-10-22T04:27:51.687Z,1000.79
2016-10-22T04:28:51.851Z,1000.78
2016-10-22T04:29:52.083Z,1000.79
2016-10-22T04:30:51.621Z,1000.82
2016-10-22T04:31:53.024Z,1000.8
2016-10-22T04:32:51.887Z,1000.8
2016-10-22T04:33:51.892Z,1000.81
2016-10-22T04:34:52.160Z,1000.8
2016-10-22T04:35:52.042Z,1000.8
2016-10-22T04:36:51.616Z,1000.81
2016-10-22T04:37:52.092Z,1000.83
2016-10-22T04:38:52.136Z,1000.85
2016-10-22T04:39:51.848Z,1000.81
2016-10-22T04:40:52.370Z,1000.8
2016-10-22T04:41:52.071Z,1000.83
2016-10-22T04:42:52.212Z,1000.83
2016-10-22T04:43:51.769Z,1000.82
2016-10-22T04:44:52.479Z,1000.83
2016-10-22T04:45:51.913Z,1000.83
2016-10-22T04:46:51.934Z,1000.85
2016-10-22T04:47:52.155Z,1000.86
2016-10-22T04:48:52.113Z,1000.87
2016-10-22T04:49:52.550Z,1000.86
2016-10-22T04:50:51.863Z,1000.87
2016-10-22T04:51:52.539Z,1000.86
2016-10-22T04:52:52.443Z,1000.81
2016-10-22T04:53:52.138Z,1000.87
2016-10-22T04:54:52.092Z,1000.86
2016-10-22T04:55:52.398Z,1000.89
2016-10-22T04:56:51.960Z,1000.88
2016-10-22T04:57:52.134Z,1000.88
2016-10-22T04:58:52.207Z,1000.85
2016-10-22T04:59:52.836Z,1000.86
2016-10-22T05:00:52.510Z,1000.9
2016-10-22T05:01:52.306Z,1000.93
2016-10-22T05:02:52.665Z,1000.95
2016-10-22T05:03:52.963Z,1000.95
2016-10-22T05:04:52.627Z,1000.97
2016-10-22T05:05:52.338Z,1000.97
2016-10-22T05:06:52.269Z,1000.99
2016-10-22T05:07:52.340Z,1000.99
2016-10-22T05:08:52.299Z,1000.98
2016-10-22T05:09:52.739Z,1001.01
2016-10-22T05:10:52.255Z,1001.01
2016-10-22T05:11:52.302Z,1001.02
2016-10-22T05:12:53.053Z,1001.01
2016-10-22T05:13:52.693Z,1001.01
2016-10-22T05:14:52.322Z,1001.01
2016-10-22T05:15:52.690Z,1000.99
2016-10-22T05:16:52.730Z,1000.97
2016-10-22T05:17:52.351Z,1000.95
2016-10-22T05:18:52.747Z,1000.96
2016-10-22T05:19:52.510Z,1000.99
2016-10-22T05:20:52.282Z,1000.97
2016-10-22T05:21:52.769Z,1000.98
2016-10-22T05:22:52.701Z,1000.98
2016-10-22T05:23:52.805Z,1000.98
2016-10-22T05:24:52.430Z,1001.01
2016-10-22T05:25:53.025Z,1001
2016-10-22T05:26:52.774Z,1001.03
2016-10-22T05:27:53.598Z,1001.04
2016-10-22T05:28:52.739Z,1001.06
2016-10-22T05:29:52.879Z,1001.07
2016-10-22T05:30:52.557Z,1001.04
2016-10-22T05:31:53.843Z,1001.07
2016-10-22T05:32:52.584Z,1001.05
2016-10-22T05:33:52.665Z,1001.06
2016-10-22T05:34:53.306Z,1001.07
2016-10-22T05:35:52.718Z,1001.06
2016-10-22T05:36:52.828Z,1001.07
2016-10-22T05:37:53.284Z,1001.09
2016-10-22T05:38:52.592Z,1001.11
2016-10-22T05:39:53.078Z,1001.06
2016-10-22T05:40:53.321Z,1001.07
2016-10-22T05:41:52.811Z,1001.06
2016-10-22T05:42:52.823Z,1001.09
2016-10-22T05:43:53.138Z,1001.07
2016-10-22T05:44:52.724Z,1001.05
2016-10-22T05:45:53.371Z,1001.06
2016-10-22T05:46:52.835Z,1001.06
2016-10-22T05:47:52.714Z,1001.06
2016-10-22T05:48:52.786Z,1001.05
2016-10-22T05:49:53.183Z,1001.08
2016-10-22T05:50:53.050Z,1001.12
2016-10-22T05:51:52.972Z,1001.09
2016-10-22T05:52:52.841Z,1001.11
2016-10-22T05:53:53.015Z,1001.13
2016-10-22T05:54:52.795Z,1001.14
2016-10-22T05:55:53.219Z,1001.13
2016-10-22T05:56:52.955Z,1001.14
2016-10-22T05:57:53.099Z,1001.14
2016-10-22T05:58:53.017Z,1001.15
2016-10-22T05:59:53.144Z,1001.17
2016-10-22T06:00:53.435Z,1001.17
2016-10-22T06:01:53.169Z,1001.17
2016-10-22T06:02:52.944Z,1001.19
2016-10-22T06:03:53.270Z,1001.21
2016-10-22T06:04:53.196Z,1001.24
2016-10-22T06:05:53.052Z,1001.21
2016-10-22T06:06:53.314Z,1001.24
2016-10-22T06:07:53.056Z,1001.29
2016-10-22T06:08:53.787Z,1001.27
2016-10-22T06:09:53.236Z,1001.3
2016-10-22T06:10:53.269Z,1001.29
2016-10-22T06:11:53.129Z,1001.3
2016-10-22T06:12:53.357Z,1001.26
2016-10-22T06:13:53.647Z,1001.33
2016-10-22T06:14:53.583Z,1001.34
2016-10-22T06:15:53.186Z,1001.34
2016-10-22T06:16:53.477Z,1001.34
2016-10-22T06:17:53.627Z,1001.3
2016-10-22T06:18:53.919Z,1001.3
2016-10-22T06:19:53.453Z,1001.32
2016-10-22T06:20:53.549Z,1001.32
2016-10-22T06:21:53.494Z,1001.34
2016-10-22T06:22:53.415Z,1001.38
2016-10-22T06:23:53.473Z,1001.34
2016-10-22T06:24:53.386Z,1001.4
2016-10-22T06:25:53.530Z,1001.37
2016-10-22T06:26:53.422Z,1001.33
2016-10-22T06:27:54.379Z,1001.39
2016-10-22T06:28:53.465Z,1001.35
2016-10-22T06:29:54.465Z,1001.37
2016-10-22T06:30:53.386Z,1001.38
2016-10-22T06:31:54.394Z,1001.36
2016-10-22T06:32:53.861Z,1001.41
2016-10-22T06:33:53.603Z,1001.39
2016-10-22T06:34:53.584Z,1001.4
2016-10-22T06:35:53.869Z,1001.44
2016-10-22T06:36:53.396Z,1001.41
2016-10-22T06:37:53.525Z,1001.39
2016-10-22T06:38:53.594Z,1001.41
2016-10-22T06:39:53.964Z,1001.47
2016-10-22T06:40:53.963Z,1001.44
2016-10-22T06:41:53.526Z,1001.44
2016-10-22T06:42:53.735Z,1001.48
2016-10-22T06:43:53.970Z,1001.46
2016-10-22T06:44:54.349Z,1001.52
2016-10-22T06:45:54.262Z,1001.46
2016-10-22T06:46:54.339Z,1001.46
2016-10-22T06:47:53.802Z,1001.49
2016-10-22T06:48:53.832Z,1001.54
2016-10-22T06:49:54.159Z,1001.54
2016-10-22T06:50:54.207Z,1001.53
2016-10-22T06:51:53.902Z,1001.54
2016-10-22T06:52:53.786Z,1001.58
2016-10-22T06:53:54.168Z,1001.58
2016-10-22T06:54:53.868Z,1001.58
2016-10-22T06:55:54.157Z,1001.58
2016-10-22T06:56:54.251Z,1001.62
2016-10-22T06:57:54.241Z,1001.65
2016-10-22T06:58:54.170Z,1001.62
2016-10-22T06:59:53.989Z,1001.63
2016-10-22T07:00:54.473Z,1001.66
2016-10-22T07:01:54.021Z,1001.63
2016-10-22T07:02:54.377Z,1001.63
2016-10-22T07:03:54.176Z,1001.67
2016-10-22T07:04:54.425Z,1001.64
2016-10-22T07:05:54.429Z,1001.65
2016-10-22T07:06:54.069Z,1001.68
2016-10-22T07:07:54.171Z,1001.67
2016-10-22T07:08:54.264Z,1001.67
2016-10-22T07:09:54.573Z,1001.66
2016-10-22T07:10:54.744Z,1001.66
2016-10-22T07:11:54.208Z,1001.69
2016-10-22T07:12:54.413Z,1001.69
2016-10-22T07:13:54.399Z,1001.71
2016-10-22T07:14:54.189Z,1001.69
2016-10-22T07:15:54.199Z,1001.69
2016-10-22T07:16:54.628Z,1001.7
2016-10-22T07:17:54.916Z,1001.66
2016-10-22T07:18:54.432Z,1001.71
2016-10-22T07:19:54.808Z,1001.73
2016-10-22T07:20:54.927Z,1001.74
2016-10-22T07:21:54.739Z,1001.76
2016-10-22T07:22:54.528Z,1001.76
2016-10-22T07:23:54.383Z,1001.76
2016-10-22T07:24:54.398Z,1001.79
2016-10-22T07:25:54.914Z,1001.81
2016-10-22T07:26:54.387Z,1001.8
2016-10-22T07:27:54.769Z,1001.79
2016-10-22T07:28:54.386Z,1001.81
2016-10-22T07:29:54.917Z,1001.84
2016-10-22T07:30:54.641Z,1001.85
2016-10-22T07:31:54.504Z,1001.86
2016-10-22T07:32:54.574Z,1001.84
2016-10-22T07:33:54.845Z,1001.89
2016-10-22T07:34:54.466Z,1001.85
2016-10-22T07:35:54.933Z,1001.88
2016-10-22T07:36:55.121Z,1001.91
2016-10-22T07:37:54.799Z,1001.88
2016-10-22T07:38:54.616Z,1001.89
2016-10-22T07:39:54.725Z,1001.91
2016-10-22T07:40:54.764Z,1001.9
2016-10-22T07:41:54.671Z,1001.89
2016-10-22T07:42:54.558Z,1001.9
2016-10-22T07:43:54.684Z,1001.9
2016-10-22T07:44:55.002Z,1001.91
2016-10-22T07:45:54.632Z,1001.93
2016-10-22T07:46:54.666Z,1001.93
2016-10-22T07:47:54.854Z,1001.96
2016-10-22T07:48:54.751Z,1001.94
2016-10-22T07:49:54.828Z,1001.97
2016-10-22T07:50:54.729Z,1001.96
2016-10-22T07:51:54.909Z,1001.96
2016-10-22T07:52:55.126Z,1001.97
2016-10-22T07:53:54.796Z,1001.97
2016-10-22T07:54:55.000Z,1001.98
2016-10-22T07:55:54.873Z,1002
2016-10-22T07:56:55.524Z,1001.99
2016-10-22T07:57:54.951Z,1001.96
2016-10-22T07:58:55.076Z,1001.98
2016-10-22T07:59:55.255Z,1001.95
2016-10-22T08:00:54.831Z,1001.93
2016-10-22T08:01:55.464Z,1001.95
2016-10-22T08:02:55.264Z,1001.96
2016-10-22T08:03:54.867Z,1001.95
2016-10-22T08:04:55.067Z,1001.98
2016-10-22T08:05:55.242Z,1001.98
2016-10-22T08:06:55.285Z,1002.01
2016-10-22T08:07:55.304Z,1002.02
2016-10-22T08:08:55.463Z,1002.02
2016-10-22T08:09:54.953Z,1002.04
2016-10-22T08:10:55.167Z,1002.03
2016-10-22T08:11:55.391Z,1002.01
2016-10-22T08:12:55.167Z,1002.03
2016-10-22T08:13:55.157Z,1002.01
2016-10-22T08:14:55.276Z,1002
2016-10-22T08:15:55.147Z,1001.99
2016-10-22T08:16:55.335Z,1002
2016-10-22T08:17:55.266Z,1002.02
2016-10-22T08:18:55.377Z,1002.01
2016-10-22T08:19:55.115Z,1002.01
2016-10-22T08:20:55.266Z,1002.04
2016-10-22T08:21:55.178Z,1002.05
2016-10-22T08:22:55.442Z,1002.08
2016-10-22T08:23:55.280Z,1002.07
2016-10-22T08:24:55.540Z,1002.1
2016-10-22T08:25:55.475Z,1002.11
2016-10-22T08:26:55.445Z,1002.1
2016-10-22T08:27:55.365Z,1002.1
2016-10-22T08:28:55.555Z,1002.15
2016-10-22T08:29:55.425Z,1002.15
2016-10-22T08:30:55.669Z,1002.16
2016-10-22T08:31:55.403Z,1002.13
2016-10-22T08:32:55.888Z,1002.18
2016-10-22T08:33:55.632Z,1002.2
2016-10-22T08:34:55.752Z,1002.22
2016-10-22T08:35:55.645Z,1002.21
2016-10-22T08:36:55.909Z,1002.22
2016-10-22T08:37:55.684Z,1002.21
2016-10-22T08:38:55.495Z,1002.24
2016-10-22T08:39:55.771Z,1002.2
2016-10-22T08:40:55.760Z,1002.22
2016-10-22T08:41:55.778Z,1002.22
2016-10-22T08:42:55.636Z,1002.24
2016-10-22T08:43:55.645Z,1002.24
2016-10-22T08:44:55.611Z,1002.19
2016-10-22T08:45:55.631Z,1002.22
2016-10-22T08:46:55.508Z,1002.22
2016-10-22T08:47:55.994Z,1002.26
2016-10-22T08:48:55.871Z,1002.25
2016-10-22T08:49:55.783Z,1002.22
2016-10-22T08:50:55.949Z,1002.23
2016-10-22T08:51:55.683Z,1002.25
2016-10-22T08:52:55.657Z,1002.23
2016-10-22T08:53:55.938Z,1002.3
2016-10-22T08:54:56.204Z,1002.25
2016-10-22T08:55:55.947Z,1002.32
2016-10-22T08:56:55.829Z,1002.32
2016-10-22T08:57:56.205Z,1002.31
2016-10-22T08:58:55.806Z,1002.33
2016-10-22T08:59:55.886Z,1002.39
2016-10-22T09:00:56.262Z,1002.37
2016-10-22T09:01:55.897Z,1002.39
2016-10-22T09:02:56.632Z,1002.38
2016-10-22T09:03:55.849Z,1002.43
2016-10-22T09:04:56.124Z,1002.43
2016-10-22T09:05:56.207Z,1002.46
2016-10-22T09:06:56.117Z,1002.46
2016-10-22T09:07:55.992Z,1002.42
2016-10-22T09:08:56.106Z,1002.44
2016-10-22T09:09:56.175Z,1002.41
2016-10-22T09:10:56.066Z,1002.42
2016-10-22T09:11:56.162Z,1002.46
2016-10-22T09:12:56.103Z,1002.45
2016-10-22T09:13:56.024Z,1002.45
2016-10-22T09:14:56.699Z,1002.55
2016-10-22T09:15:56.278Z,1002.5
2016-10-22T09:16:56.190Z,1002.52
2016-10-22T09:17:56.697Z,1002.54
2016-10-22T09:18:56.182Z,1002.5
2016-10-22T09:19:56.252Z,1002.56
2016-10-22T09:20:57.096Z,1002.57
2016-10-22T09:21:56.532Z,1002.56
2016-10-22T09:22:56.422Z,1002.58
2016-10-22T09:23:56.180Z,1002.62
2016-10-22T09:24:56.529Z,1002.62
2016-10-22T09:25:56.466Z,1002.65
2016-10-22T09:26:56.580Z,1002.63
2016-10-22T09:27:56.529Z,1002.58
2016-10-22T09:28:56.630Z,1002.59
2016-10-22T09:29:56.444Z,1002.62
2016-10-22T09:30:56.608Z,1002.61
2016-10-22T09:31:56.532Z,1002.59
2016-10-22T09:32:56.371Z,1002.59
2016-10-22T09:33:56.819Z,1002.6
2016-10-22T09:34:56.684Z,1002.61
2016-10-22T09:35:56.845Z,1002.62
2016-10-22T09:36:56.792Z,1002.62
2016-10-22T09:37:56.647Z,1002.61
2016-10-22T09:38:56.872Z,1002.62
2016-10-22T09:39:56.459Z,1002.62
2016-10-22T09:40:56.978Z,1002.66
2016-10-22T09:41:56.565Z,1002.64
2016-10-22T09:42:56.616Z,1002.62
2016-10-22T09:43:56.789Z,1002.61
2016-10-22T09:44:56.684Z,1002.64
2016-10-22T09:45:56.581Z,1002.61
2016-10-22T09:46:57.056Z,1002.63
2016-10-22T09:47:56.878Z,1002.62
2016-10-22T09:48:56.779Z,1002.63
2016-10-22T09:49:56.816Z,1002.62
2016-10-22T09:50:57.213Z,1002.62
2016-10-22T09:51:56.965Z,1002.59
2016-10-22T09:52:56.860Z,1002.61
2016-10-22T09:53:56.748Z,1002.63
2016-10-22T09:54:56.879Z,1002.57
2016-10-22T09:55:57.400Z,1002.55
2016-10-22T09:56:57.064Z,1002.57
2016-10-22T09:57:57.153Z,1002.61
2016-10-22T09:58:57.338Z,1002.6
2016-10-22T09:59:57.280Z,1002.66
2016-10-22T10:00:56.959Z,1002.62
2016-10-22T10:01:57.157Z,1002.63
2016-10-22T10:02:57.699Z,1002.64
2016-10-22T10:03:57.085Z,1002.65
2016-10-22T10:04:57.085Z,1002.65
2016-10-22T10:05:57.172Z,1002.66
2016-10-22T10:06:56.968Z,1002.65
2016-10-22T10:07:57.534Z,1002.67
2016-10-22T10:08:57.179Z,1002.67
2016-10-22T10:09:57.646Z,1002.68
2016-10-22T10:10:57.110Z,1002.67
2016-10-22T10:11:57.633Z,1002.68
2016-10-22T10:12:57.265Z,1002.67
2016-10-22T10:13:57.307Z,1002.7
2016-10-22T10:14:57.507Z,1002.68
2016-10-22T10:15:57.648Z,1002.71
2016-10-22T10:16:57.287Z,1002.72
2016-10-22T10:17:58.308Z,1002.7
2016-10-22T10:18:57.531Z,1002.7
2016-10-22T10:19:58.048Z,1002.72
2016-10-22T10:20:57.370Z,1002.71
2016-10-22T10:21:58.160Z,1002.67
2016-10-22T10:22:57.857Z,1002.71
2016-10-22T10:23:57.319Z,1002.74
2016-10-22T10:24:57.410Z,1002.71
2016-10-22T10:25:57.459Z,1002.71
2016-10-22T10:26:57.709Z,1002.7
2016-10-22T10:27:57.415Z,1002.71
2016-10-22T10:28:57.710Z,1002.69
2016-10-22T10:29:57.520Z,1002.69
2016-10-22T10:30:57.757Z,1002.66
2016-10-22T10:31:57.401Z,1002.72
2016-10-22T10:32:57.558Z,1002.66
2016-10-22T10:33:57.493Z,1002.67
2016-10-22T10:34:57.472Z,1002.67
2016-10-22T10:35:57.816Z,1002.67
2016-10-22T10:36:57.469Z,1002.68
2016-10-22T10:37:57.992Z,1002.65
2016-10-22T10:38:57.494Z,1002.68
2016-10-22T10:39:57.790Z,1002.64
2016-10-22T10:40:57.715Z,1002.64
2016-10-22T10:41:57.974Z,1002.67
2016-10-22T10:42:58.956Z,1002.72
2016-10-22T10:43:57.731Z,1002.71
2016-10-22T10:44:57.923Z,1002.72
2016-10-22T10:45:58.188Z,1002.76
2016-10-22T10:46:57.761Z,1002.76
2016-10-22T10:47:57.872Z,1002.74
2016-10-22T10:48:57.920Z,1002.77
2016-10-22T10:49:58.189Z,1002.78
2016-10-22T10:50:57.976Z,1002.8
2016-10-22T10:51:58.019Z,1002.77
2016-10-22T10:52:57.800Z,1002.77
2016-10-22T10:53:57.828Z,1002.78
2016-10-22T10:54:58.168Z,1002.8
2016-10-22T10:55:58.478Z,1002.77
2016-10-22T10:56:58.052Z,1002.77
2016-10-22T10:57:57.961Z,1002.74
2016-10-22T10:58:58.008Z,1002.76
2016-10-22T10:59:57.998Z,1002.72
2016-10-22T11:00:58.601Z,1002.72
2016-10-22T11:01:58.001Z,1002.74
2016-10-22T11:02:58.512Z,1002.75
2016-10-22T11:03:58.432Z,1002.76
2016-10-22T11:04:58.209Z,1002.75
2016-10-22T11:05:58.178Z,1002.7
2016-10-22T11:06:58.425Z,1002.75
2016-10-22T11:07:58.105Z,1002.73
2016-10-22T11:08:58.211Z,1002.71
2016-10-22T11:09:58.179Z,1002.72
2016-10-22T11:10:58.591Z,1002.69
2016-10-22T11:11:58.572Z,1002.7
2016-10-22T11:12:58.411Z,1002.72
2016-10-22T11:13:58.383Z,1002.74
2016-10-22T11:14:58.347Z,1002.73
2016-10-22T11:15:58.435Z,1002.76
2016-10-22T11:16:58.419Z,1002.69
2016-10-22T11:17:58.415Z,1002.71
2016-10-22T11:18:58.422Z,1002.73
2016-10-22T11:19:59.005Z,1002.72
2016-10-22T11:20:58.998Z,1002.75
2016-10-22T11:21:58.932Z,1002.78
2016-10-22T11:22:58.579Z,1002.78
2016-10-22T11:23:58.475Z,1002.78
2016-10-22T11:24:59.198Z,1002.81
2016-10-22T11:25:58.516Z,1002.82
2016-10-22T11:26:58.724Z,1002.8
2016-10-22T11:27:58.479Z,1002.8
2016-10-22T11:28:58.469Z,1002.82
2016-10-22T11:29:58.702Z,1002.83
2016-10-22T11:30:58.687Z,1002.88
2016-10-22T11:31:59.277Z,1002.89
2016-10-22T11:32:58.706Z,1002.88
2016-10-22T11:33:58.791Z,1002.89
2016-10-22T11:34:59.223Z,1002.9
2016-10-22T11:35:58.746Z,1002.91
2016-10-22T11:36:58.701Z,1002.89
2016-10-22T11:37:59.305Z,1002.9
2016-10-22T11:38:58.960Z,1002.9
2016-10-22T11:39:58.790Z,1002.89
2016-10-22T11:40:59.380Z,1002.88
2016-10-22T11:41:59.302Z,1002.85
2016-10-22T11:42:58.995Z,1002.87
2016-10-22T11:43:59.337Z,1002.85
2016-10-22T11:44:59.088Z,1002.87
2016-10-22T11:45:59.172Z,1002.93
2016-10-22T11:46:58.981Z,1002.87
2016-10-22T11:47:59.268Z,1002.9
2016-10-22T11:48:59.110Z,1002.9
2016-10-22T11:50:00.094Z,1002.89
2016-10-22T11:50:59.621Z,1002.94
2016-10-22T11:51:59.090Z,1002.94
2016-10-22T11:52:59.318Z,1002.94
2016-10-22T11:53:59.824Z,1002.94
2016-10-22T11:54:59.058Z,1002.97
2016-10-22T11:55:59.602Z,1002.98
2016-10-22T11:56:59.566Z,1002.94
2016-10-22T11:57:59.177Z,1003.01
2016-10-22T11:58:59.460Z,1003.03
2016-10-22T11:59:59.240Z,1003.05
2016-10-22T12:00:59.141Z,1003.06
2016-10-22T12:01:59.649Z,1003.09
2016-10-22T12:02:59.497Z,1003.08
2016-10-22T12:03:59.150Z,1003.13
2016-10-22T12:04:59.683Z,1003.13
2016-10-22T12:05:59.296Z,1003.15
2016-10-22T12:06:59.439Z,1003.16
2016-10-22T12:07:59.536Z,1003.18
2016-10-22T12:08:59.364Z,1003.21
2016-10-22T12:09:59.236Z,1003.18